sensor_id;sensor_type;location;lat;lon;timestamp;pressure;altitude;pressure_sealevel;temperature;humidity
78673;BME280;67988;60.086;30.354;2023-08-24T06:07:25;101220.38;;;14.97;70.42
78673;BME280;67988;60.086;30.354;2023-08-24T06:09:53;101230.84;;;15.10;70.69
78673;BME280;67988;60.086;30.354;2023-08-24T06:12:20;101231.88;;;15.28;71.17
78673;BME280;67988;60.086;30.354;2023-08-24T06:14:47;101228.97;;;15.41;70.62
78673;BME280;67988;60.086;30.354;2023-08-24T06:17:14;101212.88;;;15.50;70.05
78673;BME280;67988;60.086;30.354;2023-08-24T06:19:41;101231.72;;;15.79;69.87
78673;BME280;67988;60.086;30.354;2023-08-24T06:22:09;101234.97;;;15.83;68.60
78673;BME280;67988;60.086;30.354;2023-08-24T06:24:37;101225.22;;;16.01;67.63
78673;BME280;67988;60.086;30.354;2023-08-24T06:27:04;101236.94;;;16.10;66.20
78673;BME280;67988;60.086;30.354;2023-08-24T06:29:32;101230.56;;;16.20;65.26
78673;BME280;67988;60.086;30.354;2023-08-24T06:31:59;101241.72;;;16.35;64.80
78673;BME280;67988;60.086;30.354;2023-08-24T06:34:26;101235.75;;;16.51;64.50
78673;BME280;67988;60.086;30.354;2023-08-24T06:36:53;101236.56;;;16.70;62.72
78673;BME280;67988;60.086;30.354;2023-08-24T06:39:21;101233.44;;;16.75;61.63
78673;BME280;67988;60.086;30.354;2023-08-24T06:41:51;101227.75;;;16.88;60.67
78673;BME280;67988;60.086;30.354;2023-08-24T06:44:24;101225.00;;;16.97;59.84
78673;BME280;67988;60.086;30.354;2023-08-24T06:46:51;101229.66;;;17.05;59.58
78673;BME280;67988;60.086;30.354;2023-08-24T06:49:18;101226.66;;;17.08;58.52
78673;BME280;67988;60.086;30.354;2023-08-24T06:51:46;101233.47;;;17.12;58.37
78673;BME280;67988;60.086;30.354;2023-08-24T06:54:13;101231.81;;;17.29;57.82
78673;BME280;67988;60.086;30.354;2023-08-24T06:56:41;101228.88;;;17.22;57.25
78673;BME280;67988;60.086;30.354;2023-08-24T06:59:10;101230.66;;;17.31;56.61
78673;BME280;67988;60.086;30.354;2023-08-24T07:01:39;101217.81;;;17.25;56.41
78673;BME280;67988;60.086;30.354;2023-08-24T07:04:07;101235.78;;;17.25;55.96
78673;BME280;67988;60.086;30.354;2023-08-24T07:06:34;101242.66;;;17.37;55.38
78673;BME280;67988;60.086;30.354;2023-08-24T07:09:01;101247.03;;;17.38;55.39
78673;BME280;67988;60.086;30.354;2023-08-24T07:11:32;101248.44;;;17.42;55.29
78673;BME280;67988;60.086;30.354;2023-08-24T07:13:59;101244.41;;;17.55;54.59
78673;BME280;67988;60.086;30.354;2023-08-24T07:16:28;101246.59;;;17.70;54.39
78673;BME280;67988;60.086;30.354;2023-08-24T07:18:55;101243.44;;;17.74;54.24
78673;BME280;67988;60.086;30.354;2023-08-24T07:21:22;101243.50;;;17.65;54.10
78673;BME280;67988;60.086;30.354;2023-08-24T07:23:49;101239.22;;;17.72;54.48
78673;BME280;67988;60.086;30.354;2023-08-24T15:54:03;101088.78;;;26.98;29.40
78673;BME280;67988;60.086;30.354;2023-08-24T15:56:30;101094.00;;;26.42;30.45
78673;BME280;67988;60.086;30.354;2023-08-24T15:58:57;101096.50;;;25.45;31.89
78673;BME280;67988;60.086;30.354;2023-08-24T16:01:24;101097.72;;;25.22;32.46
78673;BME280;67988;60.086;30.354;2023-08-24T16:03:51;101095.28;;;24.86;33.02
78673;BME280;67988;60.086;30.354;2023-08-24T16:06:18;101101.22;;;24.62;33.90
78673;BME280;67988;60.086;30.354;2023-08-24T16:08:45;101101.22;;;24.28;34.22
78673;BME280;67988;60.086;30.354;2023-08-24T16:11:14;101103.44;;;24.17;34.62
78673;BME280;67988;60.086;30.354;2023-08-24T16:13:41;101107.75;;;24.05;35.18
78673;BME280;67988;60.086;30.354;2023-08-24T16:16:08;101102.72;;;23.81;35.28
78673;BME280;67988;60.086;30.354;2023-08-24T16:18:36;101103.00;;;23.65;35.20
78673;BME280;67988;60.086;30.354;2023-08-24T16:21:03;101105.25;;;23.40;35.90
78673;BME280;67988;60.086;30.354;2023-08-24T16:23:30;101093.91;;;23.15;36.19
78673;BME280;67988;60.086;30.354;2023-08-24T16:25:58;101095.09;;;22.91;37.31
78673;BME280;67988;60.086;30.354;2023-08-24T16:28:26;101100.53;;;22.77;37.78
78673;BME280;67988;60.086;30.354;2023-08-24T16:30:53;101098.31;;;22.51;37.79
78673;BME280;67988;60.086;30.354;2023-08-24T16:33:21;101098.78;;;22.25;38.77
78673;BME280;67988;60.086;30.354;2023-08-24T16:35:49;101101.59;;;21.94;39.63
78673;BME280;67988;60.086;30.354;2023-08-24T16:38:16;101104.38;;;21.86;40.11
78673;BME280;67988;60.086;30.354;2023-08-24T16:40:45;101094.53;;;21.70;40.95
78673;BME280;67988;60.086;30.354;2023-08-24T16:43:13;101093.44;;;21.57;41.08
78673;BME280;67988;60.086;30.354;2023-08-24T16:45:41;101092.31;;;21.51;41.32
78673;BME280;67988;60.086;30.354;2023-08-24T16:48:08;101092.19;;;21.45;41.69
78673;BME280;67988;60.086;30.354;2023-08-24T16:50:36;101082.50;;;21.27;41.56
78673;BME280;67988;60.086;30.354;2023-08-24T16:53:03;101084.25;;;21.12;42.43
78673;BME280;67988;60.086;30.354;2023-08-24T16:55:30;101092.59;;;21.03;42.71
78673;BME280;67988;60.086;30.354;2023-08-24T16:57:58;101096.38;;;20.94;42.88
78673;BME280;67988;60.086;30.354;2023-08-24T17:00:25;101097.56;;;20.91;43.08
78673;BME280;67988;60.086;30.354;2023-08-24T17:02:54;101089.69;;;20.81;43.39
78673;BME280;67988;60.086;30.354;2023-08-24T17:05:22;101092.06;;;20.76;43.56
78673;BME280;67988;60.086;30.354;2023-08-24T17:08:02;101078.25;;;20.71;43.53
78673;BME280;67988;60.086;30.354;2023-08-24T17:10:30;101090.38;;;20.83;43.97
78673;BME280;67988;60.086;30.354;2023-08-24T17:12:58;101094.25;;;20.81;43.97
78673;BME280;67988;60.086;30.354;2023-08-24T17:15:25;101063.81;;;20.48;44.38
78673;BME280;67988;60.086;30.354;2023-08-24T17:17:54;101098.28;;;20.46;44.84
78673;BME280;67988;60.086;30.354;2023-08-24T17:20:21;101095.28;;;20.33;45.10
78673;BME280;67988;60.086;30.354;2023-08-24T17:22:48;101097.31;;;20.15;46.53
78673;BME280;67988;60.086;30.354;2023-08-24T17:25:16;101102.91;;;19.97;48.00
78673;BME280;67988;60.086;30.354;2023-08-24T17:27:43;101104.28;;;19.77;50.21
78673;BME280;67988;60.086;30.354;2023-08-24T17:30:11;101110.69;;;19.59;51.25
78673;BME280;67988;60.086;30.354;2023-08-24T17:32:38;101102.22;;;19.30;53.31
78673;BME280;67988;60.086;30.354;2023-08-24T17:35:07;101103.69;;;19.08;54.50
78673;BME280;67988;60.086;30.354;2023-08-24T17:37:35;101106.50;;;18.99;55.09
78673;BME280;67988;60.086;30.354;2023-08-24T17:40:02;101100.22;;;18.82;55.54
78673;BME280;67988;60.086;30.354;2023-08-24T17:42:32;101115.88;;;18.70;55.91
78673;BME280;67988;60.086;30.354;2023-08-24T17:44:59;101103.00;;;18.56;56.66
78673;BME280;67988;60.086;30.354;2023-08-24T17:47:26;101102.84;;;18.58;56.16
78673;BME280;67988;60.086;30.354;2023-08-24T17:49:53;101106.53;;;18.57;56.64
78673;BME280;67988;60.086;30.354;2023-08-24T17:52:22;101105.84;;;18.55;56.89
78673;BME280;67988;60.086;30.354;2023-08-24T17:54:49;101109.00;;;18.50;56.77
78673;BME280;67988;60.086;30.354;2023-08-24T17:57:16;101099.06;;;18.51;57.00
78673;BME280;67988;60.086;30.354;2023-08-24T17:59:44;101104.25;;;18.44;57.52
78673;BME280;67988;60.086;30.354;2023-08-24T18:02:11;101099.03;;;18.43;57.33
78673;BME280;67988;60.086;30.354;2023-08-24T18:04:38;101082.59;;;18.28;57.65
78673;BME280;67988;60.086;30.354;2023-08-24T18:07:06;101076.56;;;18.26;57.86
78673;BME280;67988;60.086;30.354;2023-08-24T18:09:34;101103.22;;;18.37;57.77
78673;BME280;67988;60.086;30.354;2023-08-24T18:12:02;101097.66;;;18.38;57.50
78673;BME280;67988;60.086;30.354;2023-08-24T18:14:31;101103.38;;;18.35;57.46
78673;BME280;67988;60.086;30.354;2023-08-24T18:16:58;101100.78;;;18.26;58.52
78673;BME280;67988;60.086;30.354;2023-08-24T18:19:25;101109.19;;;18.23;58.64
78673;BME280;67988;60.086;30.354;2023-08-24T18:21:52;101109.19;;;18.23;59.36
78673;BME280;67988;60.086;30.354;2023-08-24T18:24:20;101108.31;;;18.14;59.83
78673;BME280;67988;60.086;30.354;2023-08-24T18:26:48;101117.00;;;18.08;60.23
78673;BME280;67988;60.086;30.354;2023-08-24T18:29:15;101114.09;;;18.02;60.50
78673;BME280;67988;60.086;30.354;2023-08-24T18:31:43;101126.56;;;18.03;60.87
78673;BME280;67988;60.086;30.354;2023-08-24T18:34:10;101132.28;;;18.00;60.81
78673;BME280;67988;60.086;30.354;2023-08-24T18:36:37;101127.75;;;18.00;60.96
78673;BME280;67988;60.086;30.354;2023-08-24T18:39:04;101125.88;;;18.01;60.72
78673;BME280;67988;60.086;30.354;2023-08-24T18:41:33;101123.34;;;17.99;60.96
78673;BME280;67988;60.086;30.354;2023-08-24T18:44:02;101122.81;;;17.95;61.00
78673;BME280;67988;60.086;30.354;2023-08-24T18:46:29;101121.81;;;17.96;61.16
78673;BME280;67988;60.086;30.354;2023-08-24T18:48:56;101125.34;;;17.97;60.73
78673;BME280;67988;60.086;30.354;2023-08-24T18:51:23;101128.03;;;17.97;61.02
78673;BME280;67988;60.086;30.354;2023-08-24T18:53:51;101121.44;;;17.91;61.43
78673;BME280;67988;60.086;30.354;2023-08-24T18:56:18;101130.34;;;17.92;60.78
78673;BME280;67988;60.086;30.354;2023-08-24T18:58:45;101116.03;;;17.91;60.67
78673;BME280;67988;60.086;30.354;2023-08-24T19:01:14;101126.53;;;17.94;61.02
78673;BME280;67988;60.086;30.354;2023-08-24T19:03:42;101124.81;;;17.93;60.18
78673;BME280;67988;60.086;30.354;2023-08-24T19:06:09;101132.06;;;17.93;60.92
78673;BME280;67988;60.086;30.354;2023-08-24T19:08:36;101133.16;;;17.82;61.49
78673;BME280;67988;60.086;30.354;2023-08-24T19:11:03;101133.25;;;17.73;62.21
78673;BME280;67988;60.086;30.354;2023-08-24T19:13:30;101137.94;;;17.71;61.83
78673;BME280;67988;60.086;30.354;2023-08-24T19:16:00;101132.16;;;17.66;62.12
78673;BME280;67988;60.086;30.354;2023-08-24T19:18:31;101134.84;;;17.66;62.36
78673;BME280;67988;60.086;30.354;2023-08-24T19:20:58;101136.28;;;17.42;63.49
78673;BME280;67988;60.086;30.354;2023-08-24T19:23:26;101145.75;;;17.29;65.02
78673;BME280;67988;60.086;30.354;2023-08-24T19:25:53;101134.25;;;17.09;65.57
78673;BME280;67988;60.086;30.354;2023-08-24T19:28:20;101142.31;;;17.09;65.94
78673;BME280;67988;60.086;30.354;2023-08-24T19:30:48;101140.47;;;17.09;65.60
78673;BME280;67988;60.086;30.354;2023-08-24T19:33:18;101142.25;;;17.19;65.29
78673;BME280;67988;60.086;30.354;2023-08-24T19:35:47;101139.28;;;17.22;64.93
78673;BME280;67988;60.086;30.354;2023-08-24T19:38:14;101141.97;;;17.22;65.37
78673;BME280;67988;60.086;30.354;2023-08-24T19:40:42;101148.66;;;17.18;65.78
78673;BME280;67988;60.086;30.354;2023-08-24T19:43:09;101144.94;;;17.19;65.54
78673;BME280;67988;60.086;30.354;2023-08-24T19:45:37;101155.31;;;17.13;65.70
78673;BME280;67988;60.086;30.354;2023-08-24T19:48:06;101153.78;;;17.11;66.08
78673;BME280;67988;60.086;30.354;2023-08-24T19:50:34;101153.06;;;17.09;66.02
78673;BME280;67988;60.086;30.354;2023-08-24T19:53:06;101147.84;;;17.07;66.09
78673;BME280;67988;60.086;30.354;2023-08-24T19:55:33;101148.53;;;17.09;66.12
78673;BME280;67988;60.086;30.354;2023-08-24T19:58:00;101137.41;;;17.04;66.36
78673;BME280;67988;60.086;30.354;2023-08-24T20:00:28;101138.69;;;17.00;66.54
78673;BME280;67988;60.086;30.354;2023-08-24T20:02:55;101134.66;;;16.87;66.77
78673;BME280;67988;60.086;30.354;2023-08-24T20:05:23;101129.47;;;16.85;66.85
78673;BME280;67988;60.086;30.354;2023-08-24T20:07:51;101137.34;;;16.87;67.43
78673;BME280;67988;60.086;30.354;2023-08-24T20:10:19;101121.69;;;16.82;67.19
78673;BME280;67988;60.086;30.354;2023-08-24T20:12:50;101140.81;;;16.79;67.84
78673;BME280;67988;60.086;30.354;2023-08-24T20:15:18;101139.94;;;16.79;67.57
78673;BME280;67988;60.086;30.354;2023-08-24T20:17:47;101138.25;;;16.78;67.78
78673;BME280;67988;60.086;30.354;2023-08-24T20:20:15;101138.72;;;16.73;67.71
78673;BME280;67988;60.086;30.354;2023-08-24T20:22:43;101110.47;;;16.59;67.63
78673;BME280;67988;60.086;30.354;2023-08-24T20:25:11;101136.75;;;16.65;68.51
78673;BME280;67988;60.086;30.354;2023-08-24T20:27:40;101140.44;;;16.55;68.57
78673;BME280;67988;60.086;30.354;2023-08-24T20:30:09;101136.50;;;16.59;68.71
78673;BME280;67988;60.086;30.354;2023-08-24T20:32:36;101146.53;;;16.57;68.74
78673;BME280;67988;60.086;30.354;2023-08-24T20:35:04;101134.66;;;16.50;68.45
78673;BME280;67988;60.086;30.354;2023-08-24T20:37:31;101143.56;;;16.50;68.59
78673;BME280;67988;60.086;30.354;2023-08-24T20:39:58;101141.03;;;16.49;68.85
78673;BME280;67988;60.086;30.354;2023-08-24T20:42:26;101138.78;;;16.44;69.03
78673;BME280;67988;60.086;30.354;2023-08-24T20:44:54;101130.19;;;16.41;69.23
78673;BME280;67988;60.086;30.354;2023-08-24T20:47:22;101140.34;;;16.37;69.49
78673;BME280;67988;60.086;30.354;2023-08-24T20:49:51;101129.47;;;16.39;69.52
78673;BME280;67988;60.086;30.354;2023-08-24T20:52:19;101130.47;;;16.38;69.39
78673;BME280;67988;60.086;30.354;2023-08-24T20:54:46;101138.38;;;16.39;69.13
78673;BME280;67988;60.086;30.354;2023-08-24T20:57:14;101137.66;;;16.37;69.17
78673;BME280;67988;60.086;30.354;2023-08-24T20:59:41;101144.59;;;16.40;69.01
78673;BME280;67988;60.086;30.354;2023-08-24T21:02:10;101149.97;;;16.40;69.00
78673;BME280;67988;60.086;30.354;2023-08-24T21:04:37;101136.13;;;16.35;69.18
78673;BME280;67988;60.086;30.354;2023-08-24T21:07:04;101135.72;;;16.29;69.60
78673;BME280;67988;60.086;30.354;2023-08-24T21:09:31;101140.94;;;16.31;69.76
78673;BME280;67988;60.086;30.354;2023-08-24T21:11:58;101140.13;;;16.30;69.38
78673;BME280;67988;60.086;30.354;2023-08-24T21:14:26;101142.63;;;16.32;69.08
78673;BME280;67988;60.086;30.354;2023-08-24T21:16:53;101143.94;;;16.28;69.52
78673;BME280;67988;60.086;30.354;2023-08-24T21:19:21;101149.59;;;16.25;69.41
78673;BME280;67988;60.086;30.354;2023-08-24T21:21:48;101152.13;;;16.26;69.39
78673;BME280;67988;60.086;30.354;2023-08-24T21:24:16;101137.03;;;16.25;69.41
78673;BME280;67988;60.086;30.354;2023-08-24T21:26:43;101148.59;;;16.26;69.56
78673;BME280;67988;60.086;30.354;2023-08-24T21:29:10;101144.06;;;16.26;69.19
78673;BME280;67988;60.086;30.354;2023-08-24T21:31:37;101149.59;;;16.25;69.57
78673;BME280;67988;60.086;30.354;2023-08-24T21:34:04;101145.34;;;16.22;69.23
78673;BME280;67988;60.086;30.354;2023-08-24T21:36:33;101142.22;;;16.27;69.32
78673;BME280;67988;60.086;30.354;2023-08-24T21:39:00;101142.53;;;16.24;69.71
78673;BME280;67988;60.086;30.354;2023-08-24T21:41:27;101145.50;;;16.21;69.72
78673;BME280;67988;60.086;30.354;2023-08-24T21:43:54;101145.78;;;16.18;69.98
78673;BME280;67988;60.086;30.354;2023-08-24T21:46:21;101146.78;;;16.17;69.97
78673;BME280;67988;60.086;30.354;2023-08-24T21:48:49;101143.25;;;16.16;69.88
78673;BME280;67988;60.086;30.354;2023-08-24T21:51:16;101141.84;;;16.12;70.04
78673;BME280;67988;60.086;30.354;2023-08-24T21:53:44;101150.34;;;16.08;70.39
78673;BME280;67988;60.086;30.354;2023-08-24T21:56:11;101150.47;;;16.06;70.61
78673;BME280;67988;60.086;30.354;2023-08-24T21:58:38;101155.53;;;16.09;70.45
78673;BME280;67988;60.086;30.354;2023-08-24T22:01:07;101150.19;;;16.09;70.60
78673;BME280;67988;60.086;30.354;2023-08-24T22:03:35;101146.81;;;16.07;70.56
78673;BME280;67988;60.086;30.354;2023-08-24T22:06:02;101156.84;;;16.05;70.72
78673;BME280;67988;60.086;30.354;2023-08-24T22:08:30;101126.38;;;15.87;70.75
78673;BME280;67988;60.086;30.354;2023-08-24T22:10:58;101149.53;;;15.98;71.02
78673;BME280;67988;60.086;30.354;2023-08-24T22:13:26;101137.63;;;16.00;71.21
78673;BME280;67988;60.086;30.354;2023-08-24T22:15:54;101145.53;;;16.02;70.98
78673;BME280;67988;60.086;30.354;2023-08-24T22:18:22;101140.19;;;16.02;70.88
78673;BME280;67988;60.086;30.354;2023-08-24T22:20:49;101119.41;;;15.94;71.03
78673;BME280;67988;60.086;30.354;2023-08-24T22:23:16;101146.25;;;16.04;71.06
78673;BME280;67988;60.086;30.354;2023-08-24T22:25:45;101137.91;;;16.07;70.67
78673;BME280;67988;60.086;30.354;2023-08-24T22:28:14;101132.53;;;16.07;70.62
78673;BME280;67988;60.086;30.354;2023-08-24T22:30:42;101133.97;;;16.01;70.96
78673;BME280;67988;60.086;30.354;2023-08-24T22:33:10;101128.59;;;16.01;70.91
78673;BME280;67988;60.086;30.354;2023-08-24T22:35:38;101137.75;;;15.99;71.26
78673;BME280;67988;60.086;30.354;2023-08-24T22:38:06;101137.09;;;15.97;70.97
78673;BME280;67988;60.086;30.354;2023-08-24T22:40:34;101134.66;;;15.94;71.51
78673;BME280;67988;60.086;30.354;2023-08-24T22:43:01;101139.06;;;15.95;71.13
78673;BME280;67988;60.086;30.354;2023-08-24T22:45:38;101131.72;;;15.97;71.58
78673;BME280;67988;60.086;30.354;2023-08-24T22:48:06;101133.25;;;15.99;71.12
78673;BME280;67988;60.086;30.354;2023-08-24T22:50:33;101134.25;;;15.98;71.55
78673;BME280;67988;60.086;30.354;2023-08-24T22:53:01;101139.63;;;15.98;71.28
78673;BME280;67988;60.086;30.354;2023-08-24T22:55:29;101137.94;;;15.97;71.47
78673;BME280;67988;60.086;30.354;2023-08-24T22:57:57;101137.75;;;15.99;71.32
78673;BME280;67988;60.086;30.354;2023-08-24T23:00:24;101136.22;;;15.96;71.24
78673;BME280;67988;60.086;30.354;2023-08-24T23:02:52;101146.00;;;15.97;71.38
78673;BME280;67988;60.086;30.354;2023-08-24T23:05:20;101122.00;;;15.86;71.07
78673;BME280;67988;60.086;30.354;2023-08-24T23:07:47;101138.47;;;16.01;71.16
78673;BME280;67988;60.086;30.354;2023-08-24T23:10:15;101143.97;;;15.99;71.09
78673;BME280;67988;60.086;30.354;2023-08-24T23:12:42;101137.94;;;15.97;71.11
78673;BME280;67988;60.086;30.354;2023-08-24T23:15:10;101141.28;;;15.99;70.97
78673;BME280;67988;60.086;30.354;2023-08-24T23:17:38;101124.38;;;15.89;71.16
78673;BME280;67988;60.086;30.354;2023-08-24T23:20:08;101136.81;;;15.90;71.33
78673;BME280;67988;60.086;30.354;2023-08-24T23:22:36;101128.03;;;15.88;71.08
78673;BME280;67988;60.086;30.354;2023-08-24T23:25:05;101135.25;;;15.87;71.68
78673;BME280;67988;60.086;30.354;2023-08-24T23:27:32;101136.25;;;15.86;71.46
78673;BME280;67988;60.086;30.354;2023-08-24T23:30:00;101132.84;;;15.84;71.71
78673;BME280;67988;60.086;30.354;2023-08-24T23:32:28;101136.53;;;15.83;71.80
78673;BME280;67988;60.086;30.354;2023-08-24T23:34:55;101132.72;;;15.86;71.81
78673;BME280;67988;60.086;30.354;2023-08-24T23:37:24;101143.59;;;15.84;72.04
78673;BME280;67988;60.086;30.354;2023-08-24T23:39:51;101142.75;;;15.84;71.85
78673;BME280;67988;60.086;30.354;2023-08-24T23:42:18;101139.34;;;15.82;71.90
78673;BME280;67988;60.086;30.354;2023-08-24T23:44:47;101143.72;;;15.83;71.99
78673;BME280;67988;60.086;30.354;2023-08-24T23:47:14;101145.41;;;15.84;72.04
78673;BME280;67988;60.086;30.354;2023-08-24T23:49:42;101140.06;;;15.84;71.57
78673;BME280;67988;60.086;30.354;2023-08-24T23:52:09;101133.84;;;15.83;71.94
78673;BME280;67988;60.086;30.354;2023-08-24T23:54:37;101128.47;;;15.83;72.07
78673;BME280;67988;60.086;30.354;2023-08-24T23:57:04;101128.78;;;15.80;71.95
78673;BME280;67988;60.086;30.354;2023-08-24T23:59:32;101132.88;;;15.75;72.13
